Terminal Aerodrome Forecast
Issued by NWS Huntsville, AL

Current Version | Previous Version | Text Only | Print | Product List | Glossary On
Versions: 1 2 3 4 5 6 7 8 9 10 11 12 13 14 15 16 17 18 19 20 21 22 23 24 25 26 27 28 29 30 31 32 33 34 35 36 37 38 39 40 41 42 43 44
000
FTUS44 KHUN 190631 AAA
TAFMSL
TAF AMD
KMSL 190631Z 1907/2006 12005KT 6SM -SHRA BKN025 OVC035
     FM190800 15005KT 5SM SHRA BR OVC022
     FM191000 18006KT 4SM SHRA BR OVC015
     FM191500 23012KT 5SM -SHRA BR OVC030
     FM191900 25015G25KT P6SM OVC040
      TEMPO 1920/1924 5SM -TSRA BR BKN025CB
     FM200000 19010KT P6SM OVC050=

USA.gov is the U.S. government's official web portal to all federal, state and local government web resources and services.